Latest Weather Observations for Bundaberg

IDQ60801

Issued at 8:02 pm EST Sunday 22 January 2017 (issued every 30 minutes, with the page automatically refreshed every 10 minutes)

About weather observations | Map of weather stations | Latest weather observations for QLD | Other Formats
Station Details ID: 039128 Name: BUNDABERG AERO Lat: -24.91 Lon: 152.32 Height: 30.82 m
Data from the previous 72 hours. | See also: Recent months at Bundaberg
Date/Time
EST
Temp
°C
App
Temp
°C
Dew
Point
°C
Rel
Hum
%
Delta-T
°C
Wind Press
QNH
hPa
Press
MSL
hPa
Rain since
9am
mm
Dir  Spd
km/h
Gust
km/h
Spd
kts
Gust
kts
22/07:30pm 25.4 24.0 17.1 60 5.2 SE 20 26 11 14 1014.6 1014.4 0.0
22/07:00pm 25.5 23.5 17.4 61 5.1 SE 24 33 13 18 1014.4 1014.2 0.0
22/06:30pm 25.7 24.0 18.1 63 4.8 ESE 24 30 13 16 1014.0 1013.8 0.0
22/06:00pm 26.2 24.2 18.3 61 5.0 ESE 26 37 14 20 1013.7 1013.5 0.0
22/05:30pm 26.6 24.7 18.5 61 5.2 ESE 26 35 14 19 1013.3 1013.1 0.0
22/05:00pm 27.2 26.1 17.7 56 6.0 ESE 20 30 11 16 1013.1 1012.9 0.0
22/04:30pm 27.1 25.4 18.1 58 5.7 ESE 24 30 13 16 1013.0 1012.8 0.0
22/04:00pm 27.0 25.5 18.6 60 5.4 ESE 24 30 13 16 1013.0 1012.8 0.0
22/03:30pm 26.9 25.6 19.0 62 5.1 SE 24 30 13 16 1013.2 1013.0 0.0
22/03:00pm 26.7 25.4 19.1 63 4.9 SE 24 32 13 17 1013.5 1013.3 0.0
22/02:30pm 27.0 26.1 19.1 62 5.1 SE 22 28 12 15 1013.7 1013.5 0.0
22/02:00pm 27.1 24.7 19.2 62 5.1 SE 30 41 16 22 1013.8 1013.6 0.0
22/01:30pm 27.7 26.0 19.0 59 5.6 SE 26 32 14 17 1013.9 1013.7 0.0
22/01:00pm 28.3 26.4 20.1 61 5.4 ESE 30 43 16 23 1014.1 1013.9 0.0
22/12:30pm 27.5 25.1 19.0 59 5.5 ESE 30 39 16 21 1014.4 1014.2 0.0
22/12:00pm 27.6 25.6 19.1 59 5.5 SE 28 39 15 21 1014.6 1014.4 0.0
22/11:30am 27.5 24.9 19.6 62 5.1 ESE 32 41 17 22 1014.8 1014.6 0.0
22/11:00am 27.7 25.7 20.0 63 5.0 ESE 30 41 16 22 1015.0 1014.8 0.0
22/10:30am 26.9 26.7 20.5 68 4.2 SE 22 32 12 17 1015.0 1014.8 0.0
22/10:00am 26.4 25.5 20.7 71 3.7 SE 26 33 14 18 1015.2 1015.0 0.0
22/09:30am 26.1 25.7 20.9 73 3.4 ESE 24 30 13 16 1015.0 1014.8 0.0
22/09:00am 24.7 25.3 21.4 82 2.2 ESE 20 30 11 16 1015.1 1014.9 0.0
22/08:47am 24.3 25.2 21.6 85 1.8 SE 19 26 10 14 1015.0 1014.8 0.0
22/08:30am 23.8 23.4 21.7 88 1.4 ESE 26 35 14 19 1014.9 1014.7 0.0
22/08:27am 24.0 23.1 21.5 86 1.7 SE 28 35 15 19 1014.9 1014.7 0.0
22/08:00am 24.9 24.2 21.0 79 2.6 SE 26 37 14 20 1014.4 1014.2 0.0
22/07:30am 25.1 24.4 21.0 78 2.7 SE 26 35 14 19 1014.1 1013.9 0.0
22/07:00am 24.6 25.2 21.3 82 2.2 SSE 20 30 11 16 1013.9 1013.7 0.0
22/06:30am 24.2 24.7 21.1 83 2.0 SSE 20 30 11 16 1013.7 1013.5 0.0
22/06:00am 23.8 23.4 20.9 84 1.9 SE 24 30 13 16 1013.4 1013.2 0.0
22/05:30am 24.0 24.3 20.7 82 2.2 SSE 20 30 11 16 1013.0 1012.8 0.0
22/05:00am 23.9 23.6 20.4 81 2.3 SSE 22 32 12 17 1012.5 1012.3 0.0
22/04:30am 24.0 23.4 20.5 81 2.3 SE 24 32 13 17 1012.0 1011.8 0.0
22/04:00am 24.1 23.4 20.2 79 2.5 SE 24 33 13 18 1011.6 1011.4 0.0
22/03:30am 24.1 23.0 20.2 79 2.5 SE 26 33 14 18 1011.3 1011.1 0.0
22/03:00am 24.1 23.7 21.0 83 2.0 SE 24 33 13 18 1011.2 1011.0 0.0
22/02:30am 24.5 24.8 20.8 80 2.4 SE 20 28 11 15 1011.5 1011.3 0.0
22/02:00am 24.6 24.4 20.5 78 2.7 SSE 22 30 12 16 1011.3 1011.1 0.0
22/01:30am 24.7 24.2 20.8 79 2.6 SE 24 35 13 19 1011.3 1011.1 0.0
22/01:19am 24.8 23.7 21.1 80 2.4 SE 28 41 15 22 1011.3 1011.1 0.0
22/01:00am 24.8 24.4 21.7 83 2.1 SSE 26 39 14 21 1011.3 1011.1 0.0
22/12:44am 25.2 24.3 21.5 80 2.5 SE 28 37 15 20 1011.3 1011.1 0.0
22/12:30am 25.3 24.3 22.0 82 2.2 SE 30 35 16 19 1011.3 1011.1 0.0
22/12:00am 25.5 26.0 22.6 84 2.0 SSE 24 33 13 18 1011.2 1011.0 0.0
 
Date/Time
EST
Temp
°C
App
Temp
°C
Dew
Point
°C
Rel
Hum
%
Delta-T
°C
Wind Press
QNH
hPa
Press
MSL
hPa
Rain since
9am
mm
Dir  Spd
km/h
Gust
km/h
Spd
kts
Gust
kts
21/11:30pm 25.9 26.5 23.4 86 1.7 SE 26 35 14 19 1011.3 1011.1 0.0
21/11:12pm 26.2 28.0 23.5 85 1.8 SE 20 30 11 16 1011.2 1011.0 0.0
21/11:00pm 26.8 28.1 23.3 81 2.4 SE 22 30 12 16 1011.1 1010.9 0.0
21/10:30pm 26.9 28.6 23.4 81 2.4 ESE 20 26 11 14 1011.2 1011.0 0.0
21/10:00pm 27.2 28.7 23.0 78 2.9 SE 20 26 11 14 1011.1 1010.9 0.0
21/09:30pm 26.7 28.9 21.9 75 3.2 SSE 13 17 7 9 1010.5 1010.3 0.0
21/09:00pm 27.2 30.2 21.9 73 3.6 E 9 11 5 6 1010.0 1009.8 0.0
21/08:30pm 27.5 30.4 21.8 71 3.8 E 9 13 5 7 1009.7 1009.5 0.0
21/08:00pm 27.9 29.1 22.2 71 3.9 SE 19 24 10 13 1009.7 1009.5 0.0
21/07:30pm 27.8 29.7 23.4 77 3.0 NNW 19 22 10 12 1008.0 1007.8 0.0
21/07:00pm 28.0 29.4 22.9 74 3.5 NNW 20 24 11 13 1007.8 1007.6 0.0
21/06:30pm 28.3 29.3 21.8 68 4.4 NNW 19 24 10 13 1007.3 1007.1 0.0
21/06:00pm 28.7 28.7 21.0 63 5.1 N 22 28 12 15 1006.8 1006.6 0.0
21/05:30pm 28.8 29.2 21.8 66 4.7 N 22 26 12 14 1006.4 1006.2 0.0
21/05:00pm 29.1 29.3 22.1 66 4.7 N 24 30 13 16 1005.9 1005.7 0.0
21/04:30pm 29.3 29.7 22.5 67 4.6 N 24 30 13 16 1005.8 1005.6 0.0
21/04:00pm 30.1 29.9 22.0 62 5.5 N 26 33 14 18 1005.7 1005.5 0.0
21/03:30pm 30.6 30.1 21.4 58 6.2 N 26 32 14 17 1006.0 1005.8 0.0
21/03:00pm 31.7 30.4 20.6 51 7.4 N 28 33 15 18 1006.3 1006.1 0.0
21/02:30pm 31.3 30.9 20.9 54 7.0 N 24 28 13 15 1006.5 1006.3 0.0
21/02:00pm 31.0 31.1 21.2 56 6.6 N 22 28 12 15 1006.8 1006.6 0.0
21/01:30pm 31.5 32.3 21.7 56 6.6 N 20 24 11 13 1007.0 1006.8 0.0
21/01:00pm 31.8 33.2 21.0 52 7.3 N 15 20 8 11 1007.2 1007.0 0.0
21/12:30pm 32.4 33.3 20.0 48 8.2 N 15 20 8 11 1007.3 1007.1 0.0
21/12:00pm 33.3 33.2 17.9 40 10.0 NNW 15 20 8 11 1007.5 1007.3 0.0
21/11:30am 33.0 31.9 16.4 37 10.5 WNW 17 24 9 13 1007.9 1007.7 0.0
21/11:00am 32.1 30.1 15.6 37 10.3 NNW 20 24 11 13 1008.1 1007.9 0.0
21/10:30am 31.2 29.3 15.2 38 9.9 NW 19 24 10 13 1008.4 1008.2 0.0
21/10:00am 31.2 29.8 15.6 39 9.7 NW 17 24 9 13 1008.7 1008.5 0.0
21/09:30am 30.7 29.3 15.5 39 9.4 NW 17 28 9 15 1008.8 1008.6 0.0
21/09:00am 30.0 29.2 18.1 49 7.6 NNW 19 22 10 12 1008.6 1008.4 0.0
21/08:30am 28.3 28.7 19.8 60 5.6 NNW 17 22 9 12 1008.8 1008.6 0.0
21/08:00am 27.3 28.6 20.1 64 4.7 NW 13 19 7 10 1008.9 1008.7 0.0
21/07:30am 26.7 27.7 21.0 71 3.8 NW 17 20 9 11 1008.9 1008.7 0.0
21/07:00am 26.1 26.6 20.9 73 3.4 NNW 19 24 10 13 1008.7 1008.5 0.0
21/06:30am 25.8 27.0 21.5 77 2.9 NW 17 20 9 11 1008.6 1008.4 0.0
21/06:00am 25.0 27.1 21.7 82 2.2 NW 13 17 7 9 1008.3 1008.1 0.0
21/05:30am 24.6 26.6 21.5 83 2.1 N 13 15 7 8 1007.7 1007.5 0.0
21/05:00am 24.3 27.4 21.4 84 1.9 NNW 7 9 4 5 1007.4 1007.2 0.0
21/04:30am 24.4 27.4 21.3 83 2.0 WSW 7 13 4 7 1007.4 1007.2 0.0
21/04:00am 25.0 27.4 21.5 81 2.3 NW 11 17 6 9 1006.6 1006.4 0.0
21/03:30am 25.5 25.3 21.2 77 2.8 NW 24 32 13 17 1006.2 1006.0 0.0
21/03:00am 25.8 25.2 21.2 76 3.1 NNW 26 33 14 18 1005.9 1005.7 0.0
21/02:30am 25.7 25.7 21.6 78 2.7 NNW 24 32 13 17 1005.8 1005.6 0.0
21/02:00am 25.7 25.8 21.8 79 2.6 NNW 24 33 13 18 1005.9 1005.7 0.0
21/01:30am 25.8 25.5 21.9 79 2.6 NNW 26 33 14 18 1006.1 1005.9 0.0
21/01:00am 25.9 26.1 22.0 79 2.6 NNW 24 32 13 17 1006.4 1006.2 0.0
21/12:30am 26.0 26.1 21.9 78 2.7 NNW 24 35 13 19 1006.9 1006.7 0.0
21/12:00am 26.1 25.9 22.0 78 2.8 NNW 26 30 14 16 1007.0 1006.8 0.0
 
Date/Time
EST
Temp
°C
App
Temp
°C
Dew
Point
°C
Rel
Hum
%
Delta-T
°C
Wind Press
QNH
hPa
Press
MSL
hPa
Rain since
9am
mm
Dir  Spd
km/h
Gust
km/h
Spd
kts
Gust
kts
20/11:30pm 26.0 27.1 22.3 80 2.5 NNW 20 28 11 15 1007.3 1007.1 0.0
20/11:00pm 26.3 27.3 22.2 78 2.8 NNW 20 24 11 13 1007.5 1007.3 0.0
20/10:30pm 26.7 26.8 21.9 75 3.2 NNW 24 30 13 16 1007.6 1007.4 0.0
20/10:00pm 27.0 26.5 21.5 72 3.7 NNW 26 33 14 18 1007.5 1007.3 0.0
20/09:30pm 26.8 26.2 21.3 72 3.7 NNW 26 32 14 17 1007.3 1007.1 0.0
20/09:00pm 27.0 26.7 21.1 70 3.9 NNW 24 32 13 17 1007.0 1006.8 0.0
20/08:30pm 27.0 26.7 20.3 66 4.4 NNW 22 30 12 16 1007.0 1006.8 0.0
20/08:00pm 27.4 27.3 20.0 64 4.8 N 20 28 11 15 1007.0 1006.8 0.0
20/07:30pm 27.8 27.2 19.8 61 5.2 N 22 30 12 16 1006.9 1006.7 0.0
20/07:00pm 28.0 27.7 19.5 60 5.5 N 20 28 11 15 1006.5 1006.3 0.0
20/06:30pm 28.5 26.9 19.2 57 6.0 N 26 37 14 20 1006.0 1005.8 0.0
20/06:00pm 29.2 28.8 20.9 61 5.5 N 24 35 13 19 1005.6 1005.4 0.0
20/05:30pm 29.7 28.3 21.1 60 5.7 N 30 39 16 21 1005.3 1005.1 0.0
20/05:00pm 30.4 28.5 20.9 57 6.4 N 32 41 17 22 1005.0 1004.8 0.0
20/04:30pm 31.2 29.0 20.8 54 6.9 N 33 41 18 22 1004.9 1004.7 0.0
20/04:00pm 31.8 29.9 20.1 50 7.8 N 30 39 16 21 1005.1 1004.9 0.0
20/03:30pm 32.7 31.4 20.6 49 8.1 N 28 35 15 19 1005.5 1005.3 0.0
20/03:00pm 32.4 31.6 21.6 53 7.3 N 28 35 15 19 1006.0 1005.8 0.0
20/02:30pm 32.8 32.6 22.0 53 7.4 N 26 37 14 20 1006.2 1006.0 0.0
20/02:00pm 32.3 32.0 21.8 54 7.1 N 26 35 14 19 1006.6 1006.4 0.0
20/01:30pm 32.5 33.5 22.9 57 6.6 N 22 28 12 15 1007.2 1007.0 0.0
20/01:00pm 32.4 32.7 22.2 55 7.0 N 24 37 13 20 1007.6 1007.4 0.0
20/12:30pm 32.3 32.9 22.1 55 6.9 N 22 32 12 17 1007.9 1007.7 0.0
20/12:00pm 31.3 32.2 22.0 57 6.3 NNW 20 28 11 15 1008.3 1008.1 0.0
20/11:30am 31.3 33.6 23.4 63 5.5 NNW 17 24 9 13 1008.6 1008.4 0.0
20/11:00am 30.7 32.8 23.1 64 5.2 NNW 17 24 9 13 1009.1 1008.9 0.0
20/10:30am 29.8 31.9 22.5 65 5.0 NNW 15 24 8 13 1009.4 1009.2 0.0
20/10:00am 29.2 31.3 22.4 66 4.6 NNW 15 19 8 10 1009.7 1009.5 0.0
20/09:30am 28.7 31.7 22.7 70 4.1 WNW 11 19 6 10 1010.0 1009.8 0.0
20/09:00am 27.8 31.9 22.3 72 3.7 N 4 7 2 4 1010.2 1010.0 0.0
20/08:30am 27.1 31.0 22.5 76 3.1 SW 6 7 3 4 1010.2 1010.0 0.0
20/08:00am 26.5 30.6 22.3 78 2.8 W 4 7 2 4 1010.3 1010.1 0.0
20/07:30am 26.1 30.4 22.0 78 2.7 SE 2 9 1 5 1010.2 1010.0 0.0
20/07:00am 26.1 29.1 22.0 78 2.7 SSE 9 13 5 7 1010.0 1009.8 0.0
20/06:30am 25.0 27.9 21.7 82 2.2 S 9 13 5 7 1009.9 1009.7 0.0
20/06:00am 24.1 28.6 21.6 86 1.7 CALM 0 6 0 3 1009.6 1009.4 0.0
20/05:30am 23.7 28.2 21.6 88 1.4 CALM 0 0 0 0 1009.3 1009.1 0.0
20/05:00am 23.9 26.6 21.4 86 1.7 SSE 9 13 5 7 1008.7 1008.5 0.0
20/04:30am 24.3 26.9 21.2 83 2.0 SSE 9 13 5 7 1008.4 1008.2 0.0
20/04:00am 24.8 27.6 21.5 82 2.2 S 9 11 5 6 1008.7 1008.5 0.0
20/03:30am 25.0 28.4 21.7 82 2.2 S 6 9 3 5 1008.8 1008.6 0.0
20/03:00am 24.8 28.9 21.5 82 2.2 SSE 2 7 1 4 1008.7 1008.5 0.0
20/02:30am 24.6 27.6 21.3 82 2.2 SE 7 11 4 6 1008.8 1008.6 0.0
20/02:00am 24.9 26.4 21.2 80 2.4 SE 15 20 8 11 1009.0 1008.8 0.0
20/01:30am 25.2 26.3 21.3 79 2.6 SE 17 22 9 12 1009.0 1008.8 0.0
20/01:00am 25.2 27.1 21.3 79 2.6 SSE 13 19 7 10 1009.1 1008.9 0.0
20/12:30am 25.6 27.5 21.3 77 2.8 SSE 13 17 7 9 1009.3 1009.1 0.0
20/12:00am 26.0 27.9 21.4 76 3.1 SSE 13 17 7 9 1009.6 1009.4 0.0
 
Date/Time
EST
Temp
°C
App
Temp
°C
Dew
Point
°C
Rel
Hum
%
Delta-T
°C
Wind Press
QNH
hPa
Press
MSL
hPa
Rain since
9am
mm
Dir  Spd
km/h
Gust
km/h
Spd
kts
Gust
kts
19/11:30pm 26.2 28.1 21.4 75 3.2 SE 13 15 7 8 1010.0 1009.8 0.0
19/11:00pm 26.4 28.0 21.4 74 3.3 SE 15 20 8 11 1010.1 1009.9 0.0
19/10:30pm 26.4 27.9 21.2 73 3.4 SE 15 19 8 10 1010.4 1010.2 0.0
19/10:00pm 26.7 27.1 21.0 71 3.8 SE 20 26 11 14 1010.5 1010.3 0.0
19/09:30pm 27.0 27.6 21.3 71 3.8 SE 20 28 11 15 1010.6 1010.4 0.0
19/09:00pm 27.2 28.1 21.5 71 3.8 SE 19 26 10 14 1010.5 1010.3 0.0
19/08:30pm 27.4 27.8 21.7 71 3.8 ESE 22 28 12 15 1010.3 1010.1 0.0

Other Formats:

Comma delimited format used in spreadsheet applications
http://www.bom.gov.au/fwo/IDQ60801/IDQ60801.94387.axf

JavaScript Object Notation format (JSON) in row-major order
http://www.bom.gov.au/fwo/IDQ60801/IDQ60801.94387.json